Latest Weather Observations for Proserpine

IDQ60801

Issued at 3:02 pm EST Tuesday 23 May 2017 (issued every 30 minutes, with the page automatically refreshed every 10 minutes)

About weather observations | Map of weather stations | Latest weather observations for QLD | Other Formats
Station Details ID: 033247 Name: PROSERPINE AIRPORT Lat: -20.49 Lon: 148.56 Height: 19.7 m
Data from the previous 72 hours. | See also: Recent months at Proserpine
Date/Time
EST
Temp
°C
App
Temp
°C
Dew
Point
°C
Rel
Hum
%
Delta-T
°C
Wind Press
QNH
hPa
Press
MSL
hPa
Rain since
9am
mm
Dir  Spd
km/h
Gust
km/h
Spd
kts
Gust
kts
23/03:00pm 25.2 24.0 20.0 73 3.4 ESE 26 33 14 18 1016.2 1016.2 0.2
23/02:30pm 25.4 23.8 20.0 72 3.5 ESE 28 35 15 19 1016.2 1016.2 0.2
23/02:00pm 26.1 23.7 20.0 69 4.0 SE 32 39 17 21 1016.3 1016.3 0.2
23/01:30pm 26.3 24.1 20.4 70 3.9 SE 32 39 17 21 1016.5 1016.5 0.2
23/01:00pm 25.9 23.5 20.0 70 3.8 ESE 32 43 17 23 1016.9 1016.9 0.2
23/12:30pm 25.6 22.9 19.7 70 3.8 SE 33 44 18 24 1017.3 1017.3 0.2
23/12:07pm 26.0 24.4 20.1 70 3.8 ESE 28 46 15 25 1017.5 1017.5 0.0
23/12:00pm 26.1 24.8 21.3 75 3.2 SE 30 39 16 21 1017.8 1017.7 0.0
23/11:30am 24.9 23.0 20.2 75 3.1 SE 30 39 16 21 1018.2 1018.1 0.0
23/11:00am 25.5 23.7 20.3 73 3.4 SE 30 46 16 25 1018.4 1018.3 0.0
23/10:52am 24.9 23.4 20.2 75 3.1 SE 28 46 15 25 1018.5 1018.4 0.0
23/10:30am 24.3 23.4 20.6 80 2.4 SE 26 37 14 20 1018.9 1018.8 0.0
23/10:08am 24.1 24.5 20.6 81 2.3 SSE 19 28 10 15 1019.1 1019.0 0.0
23/10:00am 23.9 24.9 21.0 84 1.9 SSE 17 24 9 13 1019.3 1019.2 0.0
23/09:57am 23.6 24.4 20.7 84 1.9 SSE 17 22 9 12 1019.4 1019.3 0.0
23/09:30am 23.1 22.9 20.6 86 1.6 SE 22 32 12 17 1019.4 1019.3 0.0
23/09:00am 23.3 22.7 20.4 84 1.9 SE 24 32 13 17 1019.1 1019.0 3.2
23/08:30am 22.7 23.5 20.6 88 1.4 SSE 17 22 9 12 1019.0 1018.9 3.2
23/08:00am 22.1 22.1 20.2 89 1.2 SSE 20 32 11 17 1018.7 1018.6 3.2
23/07:30am 21.4 23.0 20.0 92 0.9 SSE 11 13 6 7 1018.4 1018.3 3.2
23/07:00am 21.1 22.2 19.7 92 0.9 SSE 13 17 7 9 1018.0 1017.9 3.2
23/06:30am 21.0 22.1 19.7 92 0.8 SSE 13 19 7 10 1017.6 1017.6 3.2
23/06:00am 21.2 21.6 19.8 92 0.9 SSE 17 22 9 12 1017.3 1017.3 3.2
23/05:30am 21.0 22.1 19.7 92 0.8 SSE 13 22 7 12 1017.1 1017.1 3.2
23/05:00am 21.3 23.0 20.1 93 0.8 SSE 11 15 6 8 1016.9 1016.9 3.2
23/04:30am 21.4 23.1 20.2 93 0.8 SSE 11 15 6 8 1016.8 1016.8 3.2
23/04:00am 21.3 22.7 20.3 94 0.6 S 13 17 7 9 1016.7 1016.7 3.2
23/03:30am 21.3 22.3 20.3 94 0.6 SSE 15 22 8 12 1016.6 1016.6 3.2
23/03:00am 21.3 22.4 20.5 95 0.5 S 15 20 8 11 1016.5 1016.5 3.0
23/02:30am 21.2 22.3 20.5 96 0.5 SSE 15 20 8 11 1016.7 1016.7 3.0
23/02:00am 21.3 21.6 20.5 95 0.5 SSE 19 24 10 13 1016.9 1016.9 2.8
23/01:59am 21.4 21.8 20.6 95 0.5 SSE 19 24 10 13 1016.9 1016.9 2.8
23/01:38am 21.3 22.0 20.5 95 0.5 SSE 17 22 9 12 1017.1 1017.1 2.0
23/01:31am 21.4 22.2 20.6 95 0.5 SSE 17 24 9 13 1017.1 1017.1 1.4
23/01:30am 21.4 22.1 20.4 94 0.6 SSE 17 24 9 13 1017.0 1017.0 1.4
23/01:22am 21.7 23.3 20.7 94 0.6 SSE 13 20 7 11 1017.0 1017.0 1.2
23/01:00am 21.8 23.0 20.6 93 0.8 SSE 15 19 8 10 1017.1 1017.1 0.8
23/12:30am 21.7 22.8 20.5 93 0.8 SSE 15 17 8 9 1017.1 1017.1 0.8
23/12:00am 21.6 23.1 20.6 94 0.6 S 13 19 7 10 1017.4 1017.4 0.8
 
Date/Time
EST
Temp
°C
App
Temp
°C
Dew
Point
°C
Rel
Hum
%
Delta-T
°C
Wind Press
QNH
hPa
Press
MSL
hPa
Rain since
9am
mm
Dir  Spd
km/h
Gust
km/h
Spd
kts
Gust
kts
22/11:30pm 21.7 22.9 20.7 94 0.6 SSE 15 19 8 10 1017.5 1017.5 0.4
22/11:00pm 21.7 22.9 20.7 94 0.6 SSE 15 20 8 11 1017.6 1017.6 0.4
22/10:30pm 21.8 22.6 20.6 93 0.8 SSE 17 22 9 12 1017.8 1017.7 0.4
22/10:00pm 21.7 21.9 20.5 93 0.8 SSE 20 30 11 16 1017.8 1017.7 0.4
22/09:47pm 21.7 21.9 20.5 93 0.8 SE 20 26 11 14 1017.9 1017.8 0.4
22/09:40pm 21.7 21.9 20.5 93 0.8 SE 20 30 11 16 1017.9 1017.8 0.4
22/09:30pm 21.8 22.2 20.6 93 0.8 SE 19 30 10 16 1017.9 1017.8 0.4
22/09:23pm 21.7 22.6 20.0 90 1.1 SSE 15 19 8 10 1017.9 1017.8 0.4
22/09:09pm 22.5 23.3 19.9 85 1.7 SSE 15 20 8 11 1017.6 1017.6 0.0
22/09:00pm 22.5 23.3 19.9 85 1.7 SSE 15 19 8 10 1017.8 1017.7 0.0
22/08:30pm 22.5 23.5 19.5 83 1.9 SSE 13 19 7 10 1017.8 1017.7 0.0
22/08:00pm 22.4 23.3 19.2 82 2.0 SSE 13 17 7 9 1017.4 1017.4 0.0
22/07:30pm 22.6 23.2 19.4 82 2.0 SSE 15 20 8 11 1017.1 1017.1 0.0
22/07:00pm 22.8 23.7 19.2 80 2.3 SSE 13 17 7 9 1016.7 1016.7 0.0
22/06:30pm 23.5 23.9 19.8 80 2.4 SE 17 22 9 12 1016.5 1016.5 0.0
22/06:00pm 24.0 24.0 20.1 79 2.5 SE 20 32 11 17 1016.1 1016.1 0.0
22/05:30pm 24.2 23.9 20.3 79 2.5 SE 22 28 12 15 1015.8 1015.8 0.0
22/05:00pm 24.4 23.7 20.3 78 2.7 SE 24 33 13 18 1015.6 1015.6 0.0
22/04:30pm 24.8 23.8 20.5 77 2.8 SE 26 37 14 20 1015.2 1015.2 0.0
22/04:00pm 25.1 23.3 20.4 75 3.1 SE 30 41 16 22 1015.0 1015.0 0.0
22/03:30pm 25.3 23.6 19.7 71 3.6 ESE 28 39 15 21 1014.8 1014.8 0.0
22/03:00pm 26.1 23.6 19.7 68 4.1 ESE 32 43 17 23 1014.5 1014.5 0.0
22/02:30pm 26.2 24.7 20.3 70 3.9 ESE 28 41 15 22 1014.6 1014.6 0.0
22/02:00pm 26.5 25.7 20.1 68 4.2 ESE 24 35 13 19 1014.8 1014.8 0.0
22/01:30pm 26.5 25.2 20.6 70 3.9 ESE 28 37 15 20 1015.1 1015.1 0.0
22/01:00pm 26.7 25.4 19.8 66 4.5 SE 26 41 14 22 1015.5 1015.5 0.0
22/12:30pm 26.4 25.0 20.5 70 3.9 ESE 28 39 15 21 1015.9 1015.9 0.0
22/12:00pm 26.7 26.0 20.3 68 4.2 SE 24 33 13 18 1016.2 1016.2 0.0
22/11:30am 25.9 24.7 20.0 70 3.8 SE 26 33 14 18 1016.6 1016.6 0.0
22/11:00am 25.2 24.6 19.8 72 3.5 SE 22 30 12 16 1017.1 1017.1 0.0
22/10:30am 25.1 25.0 19.9 73 3.4 SE 20 24 11 13 1017.4 1017.4 0.0
22/10:00am 25.1 25.0 19.9 73 3.4 SSE 20 28 11 15 1017.6 1017.6 0.0
22/09:30am 24.9 25.1 20.2 75 3.1 SSE 19 30 10 16 1017.8 1017.7 0.0
22/09:00am 23.5 23.8 19.6 79 2.5 SSE 17 24 9 13 1017.9 1017.8 0.0
22/08:30am 22.5 22.7 19.3 82 2.0 S 17 22 9 12 1017.8 1017.7 0.0
22/08:00am 21.9 23.3 19.6 87 1.5 S 11 15 6 8 1017.4 1017.4 0.0
22/07:30am 20.5 22.0 18.8 90 1.1 S 9 13 5 7 1017.2 1017.2 0.0
22/07:00am 18.6 21.3 17.8 95 0.5 CALM 0 6 0 3 1017.0 1017.0 0.0
22/06:30am 18.4 19.8 17.8 96 0.4 SW 7 9 4 5 1016.7 1016.7 0.0
22/06:00am 17.6 18.4 17.3 98 0.2 SW 9 11 5 6 1016.2 1016.2 0.0
22/05:30am 16.7 17.4 16.1 96 0.4 SW 7 9 4 5 1015.9 1015.9 0.0
22/05:00am 16.9 16.9 16.3 96 0.4 SW 11 13 6 7 1015.7 1015.7 0.0
22/04:30am 17.2 17.7 16.6 96 0.4 SSW 9 11 5 6 1015.7 1015.7 0.0
22/04:00am 17.7 18.0 17.1 96 0.4 SSW 11 11 6 6 1015.7 1015.7 0.0
22/03:30am 17.9 18.7 17.3 96 0.4 SW 9 11 5 6 1015.7 1015.7 0.0
22/03:00am 17.7 18.4 17.1 96 0.4 SW 9 13 5 7 1015.8 1015.8 0.0
22/02:30am 17.7 18.0 17.1 96 0.4 SW 11 11 6 6 1015.9 1015.9 0.0
22/02:00am 18.1 18.7 17.8 98 0.2 SW 11 11 6 6 1016.1 1016.1 0.0
22/01:30am 17.3 17.9 16.7 96 0.4 SSW 9 9 5 5 1016.1 1016.1 0.0
22/01:00am 18.0 18.9 17.5 97 0.3 SSW 9 9 5 5 1016.3 1016.3 0.0
22/12:30am 17.9 19.1 17.4 97 0.3 SW 7 9 4 5 1016.5 1016.5 0.0
22/12:00am 18.1 19.0 17.6 97 0.3 SSW 9 11 5 6 1016.9 1016.9 0.0
 
Date/Time
EST
Temp
°C
App
Temp
°C
Dew
Point
°C
Rel
Hum
%
Delta-T
°C
Wind Press
QNH
hPa
Press
MSL
hPa
Rain since
9am
mm
Dir  Spd
km/h
Gust
km/h
Spd
kts
Gust
kts
21/11:30pm 18.0 18.8 17.4 96 0.4 SSW 9 11 5 6 1017.2 1017.2 0.0
21/11:00pm 18.1 19.0 17.5 96 0.4 SSW 9 9 5 5 1017.5 1017.5 0.0
21/10:30pm 18.3 19.3 17.7 96 0.4 SSW 9 11 5 6 1017.4 1017.4 0.0
21/10:00pm 18.2 19.0 17.4 95 0.5 SSW 9 9 5 5 1017.5 1017.5 0.0
21/09:30pm 18.9 20.0 18.1 95 0.5 SSW 9 11 5 6 1017.3 1017.3 0.0
21/09:00pm 19.1 20.6 18.1 94 0.6 SSW 7 9 4 5 1017.2 1017.2 0.0
21/08:30pm 19.6 21.3 18.6 94 0.6 SSW 7 9 4 5 1016.9 1016.9 0.0
21/08:00pm 20.1 22.2 18.9 93 0.8 SE 6 9 3 5 1016.7 1016.7 0.0
21/07:30pm 20.2 21.8 19.2 94 0.6 SE 9 11 5 6 1016.4 1016.4 0.0
21/07:00pm 20.4 22.0 19.1 92 0.8 ESE 9 11 5 6 1016.0 1016.0 0.0
21/06:30pm 20.7 22.3 19.2 91 0.9 SE 9 11 5 6 1015.7 1015.7 0.0
21/06:00pm 21.6 22.9 19.2 86 1.5 ESE 11 17 6 9 1015.3 1015.3 0.0
21/05:30pm 22.4 22.9 19.2 82 2.0 ESE 15 19 8 10 1015.1 1015.1 0.0
21/05:00pm 23.5 23.1 19.0 76 2.9 ESE 19 28 10 15 1014.6 1014.6 0.0
21/04:30pm 24.1 23.0 18.7 72 3.4 ESE 22 32 12 17 1014.5 1014.5 0.0
21/04:00pm 24.9 24.4 19.1 70 3.7 ESE 20 32 11 17 1014.5 1014.5 0.0
21/03:30pm 25.0 24.0 19.6 72 3.5 ESE 24 32 13 17 1014.5 1014.5 0.0
21/03:00pm 25.0 24.3 19.4 71 3.6 ESE 22 32 12 17 1014.5 1014.5 0.0
21/02:30pm 25.6 24.9 19.5 69 3.9 ESE 22 30 12 16 1014.4 1014.4 0.0
21/02:00pm 25.2 24.0 18.4 66 4.3 ESE 22 28 12 15 1014.5 1014.5 0.0
21/01:30pm 26.2 25.8 19.3 65 4.4 ESE 20 26 11 14 1014.7 1014.7 0.0
21/01:00pm 25.7 24.7 17.6 61 5.1 ESE 19 24 10 13 1015.1 1015.1 0.0
21/12:30pm 26.0 25.2 19.2 66 4.4 ESE 22 30 12 16 1015.5 1015.5 0.0
21/12:00pm 25.4 23.8 19.1 68 4.0 ESE 26 32 14 17 1015.8 1015.8 0.0
21/11:30am 25.2 24.2 18.9 68 4.0 ESE 22 30 12 16 1016.1 1016.1 0.0
21/11:00am 25.2 24.7 19.1 69 3.9 ESE 20 30 11 16 1016.5 1016.5 0.0
21/10:30am 25.0 24.3 19.6 72 3.5 ESE 22 30 12 16 1016.9 1016.9 0.0
21/10:20am 25.0 23.6 18.9 69 3.9 ESE 24 32 13 17 1016.9 1016.9 0.0
21/10:00am 24.6 24.9 18.8 70 3.7 SE 15 26 8 14 1017.0 1017.0 0.0
21/09:32am 24.0 24.0 19.7 77 2.8 S 19 24 10 13 1017.0 1017.0 0.0
21/09:30am 24.0 24.1 19.9 78 2.6 S 19 24 10 13 1016.9 1016.9 0.0
21/09:00am 22.6 23.6 19.4 82 2.0 SSE 13 19 7 10 1016.8 1016.8 0.0
21/08:30am 21.5 22.4 19.2 87 1.5 SSW 13 15 7 8 1016.7 1016.7 0.0
21/08:00am 19.8 21.6 18.8 94 0.6 SW 7 11 4 6 1016.4 1016.4 0.0
21/07:30am 18.4 19.4 17.8 96 0.4 SW 9 9 5 5 1016.2 1016.2 0.0
21/07:00am 17.8 19.0 17.3 97 0.3 SSW 7 9 4 5 1016.0 1016.0 0.0
21/06:30am 17.2 18.1 16.6 96 0.4 SSW 7 7 4 4 1015.6 1015.6 0.0
21/06:00am 17.3 18.2 16.7 96 0.4 SSW 7 9 4 5 1015.3 1015.3 0.0
21/05:43am 17.5 17.8 16.9 96 0.4 SW 11 13 6 7 1015.1 1015.1 0.0
21/05:30am 17.7 18.3 16.9 95 0.5 SW 9 11 5 6 1015.0 1015.0 0.0
21/05:00am 18.0 19.2 17.4 96 0.4 SW 7 9 4 5 1014.8 1014.8 0.0
21/04:30am 18.0 19.0 17.7 98 0.2 SSW 9 11 5 6 1014.7 1014.7 0.0
21/04:17am 17.5 18.6 17.0 97 0.3 SSW 7 9 4 5 1014.7 1014.7 0.0
21/04:00am 17.4 18.0 16.8 96 0.4 SW 9 9 5 5 1014.7 1014.7 0.0
21/03:30am 17.6 18.3 17.1 97 0.3 SW 9 11 5 6 1014.7 1014.7 0.0
21/03:00am 17.9 18.4 17.4 97 0.3 SSW 11 13 6 7 1014.8 1014.8 0.0
21/02:43am 17.9 18.4 17.4 97 0.3 SW 11 13 6 7 1014.9 1014.9 0.0
21/02:30am 18.0 18.5 17.5 97 0.3 SW 11 13 6 7 1014.9 1014.9 0.0
21/02:27am 18.1 18.7 17.6 97 0.3 SW 11 13 6 7 1014.9 1014.9 0.0
21/02:00am 17.8 18.6 17.2 96 0.4 SSW 9 11 5 6 1014.9 1014.9 0.0
21/01:50am 18.0 18.8 17.4 96 0.4 SSW 9 11 5 6 1015.1 1015.1 0.0
21/01:31am 18.3 19.3 17.8 97 0.3 S 9 11 5 6 1015.2 1015.2 0.0
21/01:30am 18.3 19.3 17.8 97 0.3 S 9 11 5 6 1015.3 1015.3 0.0
21/01:00am 18.2 18.8 17.7 97 0.3 SSW 11 13 6 7 1015.5 1015.5 0.0
21/12:30am 18.3 18.9 17.8 97 0.3 SSW 11 11 6 6 1015.8 1015.8 0.0
21/12:00am 18.5 19.2 18.0 97 0.3 SSW 11 11 6 6 1015.9 1015.9 0.0
 
Date/Time
EST
Temp
°C
App
Temp
°C
Dew
Point
°C
Rel
Hum
%
Delta-T
°C
Wind Press
QNH
hPa
Press
MSL
hPa
Rain since
9am
mm
Dir  Spd
km/h
Gust
km/h
Spd
kts
Gust
kts
20/11:30pm 18.8 19.6 18.1 96 0.4 SSW 11 13 6 7 1016.0 1016.0 0.0
20/11:00pm 18.9 19.7 18.1 95 0.5 SSW 11 13 6 7 1016.0 1016.0 0.0
20/10:30pm 19.0 20.2 18.2 95 0.5 S 9 9 5 5 1016.2 1016.2 0.0
20/10:00pm 19.0 20.6 18.2 95 0.5 S 7 9 4 5 1016.3 1016.3 0.0
20/09:30pm 19.4 21.2 18.7 96 0.4 S 7 9 4 5 1016.2 1016.2 0.0
20/09:00pm 19.5 21.3 18.7 95 0.5 SSW 7 9 4 5 1016.1 1016.1 0.0
20/08:30pm 20.2 22.0 19.5 96 0.4 S 9 11 5 6 1015.9 1015.9 0.0
20/08:00pm 20.6 22.9 19.8 95 0.5 SSE 7 9 4 5 1015.8 1015.8 0.0
20/07:30pm 20.6 22.8 19.6 94 0.6 SE 7 9 4 5 1015.7 1015.7 0.0
20/07:00pm 21.1 23.3 20.3 95 0.5 SE 9 13 5 7 1015.3 1015.3 0.0
20/06:30pm 21.0 23.4 20.0 94 0.6 SE 7 9 4 5 1014.9 1014.9 0.0
20/06:00pm 21.4 23.4 20.0 92 0.9 SE 9 9 5 5 1014.6 1014.6 0.0
20/05:30pm 22.3 23.6 20.2 88 1.4 SE 13 17 7 9 1014.3 1014.3 0.0
20/05:00pm 23.6 24.8 19.9 80 2.4 ESE 13 19 7 10 1013.9 1013.9 0.0
20/04:30pm 24.2 24.3 19.9 77 2.8 ESE 19 26 10 14 1013.8 1013.8 0.0
20/04:00pm 25.0 24.8 19.8 73 3.4 ESE 20 28 11 15 1013.7 1013.7 0.0
20/03:30pm 25.1 25.1 20.1 74 3.2 ESE 20 28 11 15 1013.6 1013.6 0.0

Other Formats:

Comma delimited format used in spreadsheet applications
http://www.bom.gov.au/fwo/IDQ60801/IDQ60801.94365.axf

JavaScript Object Notation format (JSON) in row-major order
http://www.bom.gov.au/fwo/IDQ60801/IDQ60801.94365.json